»·PEaware :: N28627 KCMA-KSNA

N28627 :: KCMA-KSNA

FLIGHT INFORMATION

Flight Status: Arrived
Operator: Privately registered:
United States
More flights under this callsign
Pilot: Gregory W. (27664)
Aircraft: CESSNA 172 SKYHAWK
(C172)
More flights by this aircraft type
Origin: KCMA Camarillo
United States
Destination: KSNA John Wayne-Orange Co
United States
More flights between these airports :: More routes between these airports
Route:
File this flight plan on PilotEdge
Remarks: requesting Coastal Route for CAT-10
Altitude:
(Current/Filed)
5,500ft
Speed:
(Current/Filed)
110kts
Departed: 01-Dec-20 08:52 AM
Arrived: 01-Dec-20 09:41 AM
Distance/Time
Traveled:
69nm/0:49
Distance/Time
To Go:
Arrived

Flight Plot

Page will automatically refresh every two minutes.


Map Options




Map Legend


Flown Route
Filed Route
Departure Airport
Arrival Airport
Navaid (VOR, NDB)
Fix

Horizontal Profiles

Position Reports

Time Latitude Longitude Heading Altitude Ground
Speed
01-Dec-20 08:25 34.210350 -119.076468 359 79ft 0kts
01-Dec-20 08:26 34.210350 -119.076468 359 79ft 0kts
01-Dec-20 08:27 34.210350 -119.076468 359 79ft 0kts
01-Dec-20 08:28 34.210350 -119.076468 359 79ft 0kts
01-Dec-20 08:29 34.210350 -119.076468 359 79ft 0kts
01-Dec-20 08:30 34.210350 -119.076468 359 79ft 0kts
01-Dec-20 08:31 34.210350 -119.076468 359 79ft 0kts
01-Dec-20 08:32 34.210350 -119.076468 359 79ft 0kts
01-Dec-20 08:33 34.210350 -119.076468 359 79ft 0kts
01-Dec-20 08:34 34.210350 -119.076468 359 79ft 0kts
01-Dec-20 08:35 34.210350 -119.076468 359 79ft 0kts
01-Dec-20 08:36 34.210350 -119.076468 359 79ft 0kts
01-Dec-20 08:37 34.210350 -119.076468 359 79ft 0kts
01-Dec-20 08:38 34.210350 -119.076468 359 79ft 0kts
01-Dec-20 08:39 34.210350 -119.076468 359 79ft 0kts
01-Dec-20 08:40 34.210350 -119.076468 359 79ft 0kts
01-Dec-20 08:41 34.210350 -119.076468 359 79ft 0kts
01-Dec-20 08:42 34.210350 -119.076468 359 79ft 0kts
01-Dec-20 08:43 34.210350 -119.076468 359 79ft 0kts
01-Dec-20 08:44 34.210698 -119.076462 353 79ft 4kts
01-Dec-20 08:45 34.211223 -119.078845 272 78ft 11kts
01-Dec-20 08:46 34.211275 -119.081379 268 76ft 10kts
01-Dec-20 08:47 34.212152 -119.084008 358 76ft 3kts
01-Dec-20 08:48 34.212784 -119.084606 349 76ft 0kts
01-Dec-20 08:49 34.212784 -119.084606 349 76ft 0kts
01-Dec-20 08:50 34.213696 -119.084946 273 76ft 11kts
01-Dec-20 08:51 34.214499 -119.108045 240 895ft 79kts
01-Dec-20 08:52 34.198778 -119.099324 114 1861ft 86kts
01-Dec-20 08:53 34.191232 -119.074237 105 2931ft 80kts
01-Dec-20 08:54 34.186576 -119.043360 86 3653ft 95kts
01-Dec-20 08:55 34.184738 -119.009480 104 4254ft 108kts
01-Dec-20 08:56 34.174170 -118.975944 103 4895ft 107kts
01-Dec-20 08:57 34.164203 -118.941116 102 5400ft 110kts
01-Dec-20 08:58 34.153659 -118.903354 103 5520ft 123kts
01-Dec-20 08:59 34.143611 -118.868230 104 5519ft 103kts
01-Dec-20 09:00 34.134244 -118.836016 104 5519ft 100kts
01-Dec-20 09:01 34.125115 -118.804201 104 5518ft 99kts
01-Dec-20 09:02 34.116092 -118.772447 101 5518ft 99kts
01-Dec-20 09:04 34.121194 -118.741466 54 5518ft 93kts
01-Dec-20 09:05 34.136436 -118.715927 51 5518ft 94kts
01-Dec-20 09:06 34.151795 -118.690131 51 5518ft 94kts
01-Dec-20 09:07 34.166994 -118.664217 51 5518ft 94kts
01-Dec-20 09:08 34.182118 -118.638056 51 5518ft 95kts
01-Dec-20 09:09 34.196459 -118.611231 74 5516ft 98kts
01-Dec-20 09:10 34.185574 -118.579239 112 5519ft 105kts
01-Dec-20 09:11 34.166929 -118.552236 136 5519ft 106kts
01-Dec-20 09:12 34.142434 -118.531778 153 5496ft 110kts
01-Dec-20 09:13 34.113962 -118.518114 157 5491ft 109kts
01-Dec-20 09:14 34.085681 -118.504659 157 5491ft 109kts
01-Dec-20 09:15 34.055522 -118.490226 156 5492ft 126kts
01-Dec-20 09:16 34.022847 -118.474625 156 5491ft 126kts
01-Dec-20 09:17 33.990169 -118.458989 155 5491ft 125kts
01-Dec-20 09:18 33.957794 -118.443494 155 5491ft 125kts
01-Dec-20 09:19 33.925826 -118.427162 146 5491ft 124kts
01-Dec-20 09:20 33.900145 -118.400301 131 5491ft 122kts
01-Dec-20 09:20 33.879687 -118.376522 133 5490ft 123kts
01-Dec-20 09:22 33.850325 -118.343877 135 5490ft 123kts
01-Dec-20 09:22 33.829048 -118.320630 136 5490ft 123kts
01-Dec-20 09:24 33.799009 -118.288621 136 5490ft 124kts
01-Dec-20 09:24 33.777470 -118.265676 136 5490ft 124kts
01-Dec-20 09:26 33.747377 -118.233600 136 5491ft 124kts
01-Dec-20 09:26 33.725761 -118.210626 136 5493ft 124kts
01-Dec-20 09:27 33.699932 -118.183128 136 5494ft 124kts
01-Dec-20 09:28 33.674021 -118.155587 135 5495ft 124kts
01-Dec-20 09:29 33.662941 -118.118240 91 5419ft 125kts
01-Dec-20 09:30 33.660137 -118.079344 93 4910ft 112kts
01-Dec-20 09:31 33.656928 -118.042514 91 4407ft 110kts
01-Dec-20 09:32 33.654766 -118.005706 91 3905ft 110kts
01-Dec-20 09:33 33.652747 -117.969007 91 3403ft 107kts
01-Dec-20 09:34 33.650359 -117.939602 89 2804ft 78kts
01-Dec-20 09:35 33.654417 -117.911643 64 1792ft 92kts
01-Dec-20 09:36 33.667431 -117.884652 45 1109ft 90kts
01-Dec-20 09:37 33.689846 -117.866202 34 993ft 93kts
01-Dec-20 09:38 33.699964 -117.847748 124 763ft 74kts
01-Dec-20 09:39 33.688386 -117.860950 212 387ft 66kts
01-Dec-20 09:40 33.676625 -117.868234 206 60ft 11kts
01-Dec-20 09:41 33.673964 -117.867711 120 60ft 6kts
01-Dec-20 09:42 33.673816 -117.867396 115 60ft 7kts
01-Dec-20 09:43 33.670653 -117.868954 159 60ft 10kts
01-Dec-20 09:44 33.669920 -117.869284 230 60ft 0kts
01-Dec-20 09:45 33.669920 -117.869284 230 60ft 0kts

Navigation Log

Ident Type
Flight plan parsing failed, navigation log unavailable